sensor_id;sensor_type;location;lat;lon;timestamp;pressure;altitude;pressure_sealevel;temperature;humidity
78123;BME280;67376;44.802;10.332;2023-07-20T00:00:22;100400.88;;;31.22;45.84
78123;BME280;67376;44.802;10.332;2023-07-20T00:02:49;100392.59;;;31.22;45.38
78123;BME280;67376;44.802;10.332;2023-07-20T00:05:15;100402.50;;;31.23;45.48
78123;BME280;67376;44.802;10.332;2023-07-20T00:07:43;100401.69;;;31.22;45.85
78123;BME280;67376;44.802;10.332;2023-07-20T00:10:08;100389.03;;;31.21;45.91
78123;BME280;67376;44.802;10.332;2023-07-20T00:12:34;100385.94;;;31.23;45.03
78123;BME280;67376;44.802;10.332;2023-07-20T00:14:59;100380.44;;;31.23;44.99
78123;BME280;67376;44.802;10.332;2023-07-20T00:17:24;100385.13;;;31.22;45.82
78123;BME280;67376;44.802;10.332;2023-07-20T00:19:49;100396.16;;;31.22;45.71
78123;BME280;67376;44.802;10.332;2023-07-20T00:22:15;100396.16;;;31.22;45.08
78123;BME280;67376;44.802;10.332;2023-07-20T00:24:40;100402.50;;;31.23;45.91
78123;BME280;67376;44.802;10.332;2023-07-20T00:27:05;100400.56;;;31.23;45.45
78123;BME280;67376;44.802;10.332;2023-07-20T00:29:31;100406.88;;;31.24;45.02
78123;BME280;67376;44.802;10.332;2023-07-20T00:31:56;100416.28;;;31.23;44.97
78123;BME280;67376;44.802;10.332;2023-07-20T00:34:21;100438.38;;;31.23;45.26
78123;BME280;67376;44.802;10.332;2023-07-20T00:36:47;100448.28;;;31.24;45.52
78123;BME280;67376;44.802;10.332;2023-07-20T00:39:14;100450.22;;;31.23;45.72
78123;BME280;67376;44.802;10.332;2023-07-20T00:41:39;100457.69;;;31.23;45.73
78123;BME280;67376;44.802;10.332;2023-07-20T00:44:04;100454.09;;;31.22;45.79
78123;BME280;67376;44.802;10.332;2023-07-20T00:46:29;100449.38;;;31.14;45.30
78123;BME280;67376;44.802;10.332;2023-07-20T00:48:57;100484.13;;;31.24;45.56
78123;BME280;67376;44.802;10.332;2023-07-20T00:51:23;100480.56;;;31.23;45.44
78123;BME280;67376;44.802;10.332;2023-07-20T00:53:50;100482.50;;;31.23;45.22
78123;BME280;67376;44.802;10.332;2023-07-20T00:56:15;100492.41;;;31.24;45.64
78123;BME280;67376;44.802;10.332;2023-07-20T00:58:41;100469.53;;;31.23;45.17
78123;BME280;67376;44.802;10.332;2023-07-20T01:01:06;100458.50;;;31.23;45.80
78123;BME280;67376;44.802;10.332;2023-07-20T01:03:31;100449.41;;;31.23;45.62
78123;BME280;67376;44.802;10.332;2023-07-20T01:09:33;100435.59;;;31.23;45.17
78123;BME280;67376;44.802;10.332;2023-07-20T01:14:00;100433.66;;;31.23;45.85
78123;BME280;67376;44.802;10.332;2023-07-20T01:16:26;100423.75;;;31.22;45.46
78123;BME280;67376;44.802;10.332;2023-07-20T01:18:52;100420.69;;;31.24;45.66
78123;BME280;67376;44.802;10.332;2023-07-20T01:21:28;100417.09;;;31.23;45.80
78123;BME280;67376;44.802;10.332;2023-07-20T01:29:17;100406.06;;;31.23;45.11
78123;BME280;67376;44.802;10.332;2023-07-20T01:31:43;100419.88;;;31.23;45.56
78123;BME280;67376;44.802;10.332;2023-07-20T01:34:09;100428.97;;;31.24;45.39
78123;BME280;67376;44.802;10.332;2023-07-20T01:36:37;100430.59;;;31.25;45.70
78123;BME280;67376;44.802;10.332;2023-07-20T01:39:02;100434.47;;;31.24;45.56
78123;BME280;67376;44.802;10.332;2023-07-20T01:41:29;100430.91;;;31.23;45.76
78123;BME280;67376;44.802;10.332;2023-07-20T01:43:57;100442.75;;;31.24;45.37
78123;BME280;67376;44.802;10.332;2023-07-20T01:46:23;100452.16;;;31.23;45.57
78123;BME280;67376;44.802;10.332;2023-07-20T01:48:48;100457.69;;;31.23;45.65
78123;BME280;67376;44.802;10.332;2023-07-20T01:51:14;100443.88;;;31.23;45.66
78123;BME280;67376;44.802;10.332;2023-07-20T01:53:39;100456.53;;;31.24;45.33
78123;BME280;67376;44.802;10.332;2023-07-20T01:56:04;100452.97;;;31.23;45.45
78123;BME280;67376;44.802;10.332;2023-07-20T01:58:29;100454.91;;;31.23;45.51
78123;BME280;67376;44.802;10.332;2023-07-20T02:00:55;100450.22;;;31.23;45.65
78123;BME280;67376;44.802;10.332;2023-07-20T02:03:20;100445.50;;;31.24;45.47
78123;BME280;67376;44.802;10.332;2023-07-20T02:05:47;100445.50;;;31.24;45.00
78123;BME280;67376;44.802;10.332;2023-07-20T02:08:12;100442.75;;;31.24;45.63
78123;BME280;67376;44.802;10.332;2023-07-20T02:10:37;100449.41;;;31.23;45.09
78123;BME280;67376;44.802;10.332;2023-07-20T02:13:02;100447.47;;;31.23;45.55
78123;BME280;67376;44.802;10.332;2023-07-20T02:15:28;100446.63;;;31.23;44.97
78123;BME280;67376;44.802;10.332;2023-07-20T02:17:53;100446.63;;;31.23;44.87
78123;BME280;67376;44.802;10.332;2023-07-20T02:20:19;100443.06;;;31.22;44.94
78123;BME280;67376;44.802;10.332;2023-07-20T02:22:44;100440.31;;;31.22;45.32
78123;BME280;67376;44.802;10.332;2023-07-20T02:25:09;100447.47;;;31.23;45.22
78123;BME280;67376;44.802;10.332;2023-07-20T02:27:35;100450.22;;;31.23;45.46
78123;BME280;67376;44.802;10.332;2023-07-20T02:30:00;100446.63;;;31.23;45.34
78123;BME280;67376;44.802;10.332;2023-07-20T02:32:26;100454.09;;;31.22;45.23
78123;BME280;67376;44.802;10.332;2023-07-20T02:34:51;100461.56;;;31.22;45.33
78123;BME280;67376;44.802;10.332;2023-07-20T02:37:17;100451.34;;;31.22;45.79
78123;BME280;67376;44.802;10.332;2023-07-20T02:39:42;100457.69;;;31.23;45.17
78123;BME280;67376;44.802;10.332;2023-07-20T02:44:52;100451.34;;;31.22;45.57
78123;BME280;67376;44.802;10.332;2023-07-20T02:47:18;100453.78;;;31.24;45.59
78123;BME280;67376;44.802;10.332;2023-07-20T02:49:43;100448.59;;;31.22;45.71
78123;BME280;67376;44.802;10.332;2023-07-20T02:52:08;100451.34;;;31.22;45.73
78123;BME280;67376;44.802;10.332;2023-07-20T02:54:34;100431.22;;;31.22;45.95
78123;BME280;67376;44.802;10.332;2023-07-20T02:56:59;100443.88;;;31.23;45.28
78123;BME280;67376;44.802;10.332;2023-07-20T02:59:24;100443.88;;;31.23;45.42
78123;BME280;67376;44.802;10.332;2023-07-20T03:01:49;100453.28;;;31.22;45.92
78123;BME280;67376;44.802;10.332;2023-07-20T03:04:14;100442.25;;;31.22;45.56
78123;BME280;67376;44.802;10.332;2023-07-20T03:06:41;100443.88;;;31.23;45.10
78123;BME280;67376;44.802;10.332;2023-07-20T03:09:06;100447.47;;;31.23;45.11
78123;BME280;67376;44.802;10.332;2023-07-20T03:11:32;100442.25;;;31.22;45.62
78123;BME280;67376;44.802;10.332;2023-07-20T03:13:57;100455.72;;;31.23;45.94
78123;BME280;67376;44.802;10.332;2023-07-20T03:16:23;100443.06;;;31.22;45.18
78123;BME280;67376;44.802;10.332;2023-07-20T03:18:50;100440.31;;;31.22;45.74
78123;BME280;67376;44.802;10.332;2023-07-20T03:21:16;100443.06;;;31.22;45.70
78123;BME280;67376;44.802;10.332;2023-07-20T03:23:41;100441.13;;;31.23;45.67
78123;BME280;67376;44.802;10.332;2023-07-20T03:26:07;100433.16;;;31.21;44.95
78123;BME280;67376;44.802;10.332;2023-07-20T03:28:36;100428.16;;;31.23;45.43
78123;BME280;67376;44.802;10.332;2023-07-20T03:31:01;100430.09;;;31.23;45.62
78123;BME280;67376;44.802;10.332;2023-07-20T03:33:27;100433.16;;;31.21;44.71
78123;BME280;67376;44.802;10.332;2023-07-20T03:35:53;100434.78;;;31.22;45.35
78123;BME280;67376;44.802;10.332;2023-07-20T03:38:18;100427.34;;;31.23;44.99
78123;BME280;67376;44.802;10.332;2023-07-20T03:40:50;100429.28;;;31.22;45.75
78123;BME280;67376;44.802;10.332;2023-07-20T03:43:15;100428.47;;;31.22;44.98
78123;BME280;67376;44.802;10.332;2023-07-20T03:45:41;100435.91;;;31.21;45.68
78123;BME280;67376;44.802;10.332;2023-07-20T03:48:06;100436.75;;;31.22;44.87
78123;BME280;67376;44.802;10.332;2023-07-20T03:50:31;100438.38;;;31.23;45.60
78123;BME280;67376;44.802;10.332;2023-07-20T03:52:57;100436.75;;;31.22;44.90
78123;BME280;67376;44.802;10.332;2023-07-20T03:55:22;100435.91;;;31.21;45.69
78123;BME280;67376;44.802;10.332;2023-07-20T03:57:48;100440.31;;;31.22;45.16
78123;BME280;67376;44.802;10.332;2023-07-20T04:00:15;100449.41;;;31.23;45.60
78123;BME280;67376;44.802;10.332;2023-07-20T04:02:41;100445.81;;;31.22;45.05
78123;BME280;67376;44.802;10.332;2023-07-20T04:05:06;100446.63;;;31.23;45.43
78123;BME280;67376;44.802;10.332;2023-07-20T04:07:32;100449.41;;;31.23;45.60
78123;BME280;67376;44.802;10.332;2023-07-20T04:09:57;100446.63;;;31.23;45.68
78123;BME280;67376;44.802;10.332;2023-07-20T04:12:22;100441.13;;;31.23;45.26
78123;BME280;67376;44.802;10.332;2023-07-20T04:14:47;100446.63;;;31.23;45.70
78123;BME280;67376;44.802;10.332;2023-07-20T04:17:13;100447.47;;;31.23;45.41
78123;BME280;67376;44.802;10.332;2023-07-20T04:19:38;100440.31;;;31.22;45.48
78123;BME280;67376;44.802;10.332;2023-07-20T04:22:03;100447.78;;;31.22;45.54
78123;BME280;67376;44.802;10.332;2023-07-20T04:24:29;100434.78;;;31.22;45.64
78123;BME280;67376;44.802;10.332;2023-07-20T04:26:54;100443.88;;;31.23;45.63
78123;BME280;67376;44.802;10.332;2023-07-20T04:29:19;100441.94;;;31.23;45.52
78123;BME280;67376;44.802;10.332;2023-07-20T04:31:45;100446.63;;;31.23;45.12
78123;BME280;67376;44.802;10.332;2023-07-20T04:34:10;100439.50;;;31.22;44.88
78123;BME280;67376;44.802;10.332;2023-07-20T04:36:35;100445.00;;;31.22;44.89
78123;BME280;67376;44.802;10.332;2023-07-20T04:39:01;100444.69;;;31.23;45.04
78123;BME280;67376;44.802;10.332;2023-07-20T04:41:26;100439.50;;;31.22;44.81
78123;BME280;67376;44.802;10.332;2023-07-20T04:43:51;100440.63;;;31.20;45.31
78123;BME280;67376;44.802;10.332;2023-07-20T04:46:17;100430.41;;;31.21;45.37
78123;BME280;67376;44.802;10.332;2023-07-20T04:48:43;100439.50;;;31.22;44.79
78123;BME280;67376;44.802;10.332;2023-07-20T04:51:09;100431.22;;;31.22;45.48
78123;BME280;67376;44.802;10.332;2023-07-20T04:53:35;100424.06;;;31.20;45.86
78123;BME280;67376;44.802;10.332;2023-07-20T04:56:00;100430.41;;;31.21;45.27
78123;BME280;67376;44.802;10.332;2023-07-20T04:58:25;100432.34;;;31.20;45.65
78123;BME280;67376;44.802;10.332;2023-07-20T05:00:51;100435.09;;;31.20;45.48
78123;BME280;67376;44.802;10.332;2023-07-20T05:03:16;100431.22;;;31.22;45.36
78123;BME280;67376;44.802;10.332;2023-07-20T05:05:42;100438.69;;;31.21;45.27
78123;BME280;67376;44.802;10.332;2023-07-20T05:08:07;100428.47;;;31.22;45.23
78123;BME280;67376;44.802;10.332;2023-07-20T05:10:32;100437.56;;;31.22;44.90
78123;BME280;67376;44.802;10.332;2023-07-20T05:12:58;100435.91;;;31.21;44.80
78123;BME280;67376;44.802;10.332;2023-07-20T05:15:23;100435.09;;;31.20;44.96
78123;BME280;67376;44.802;10.332;2023-07-20T05:17:48;100436.75;;;31.22;45.28
78123;BME280;67376;44.802;10.332;2023-07-20T05:20:14;100431.53;;;31.20;44.87
78123;BME280;67376;44.802;10.332;2023-07-20T05:22:39;100428.47;;;31.22;45.62
78123;BME280;67376;44.802;10.332;2023-07-20T05:25:08;100430.41;;;31.21;45.72
78123;BME280;67376;44.802;10.332;2023-07-20T05:27:34;100440.63;;;31.20;45.59
78123;BME280;67376;44.802;10.332;2023-07-20T05:30:00;100438.69;;;31.21;45.47
78123;BME280;67376;44.802;10.332;2023-07-20T05:32:25;100439.03;;;31.19;45.67
78123;BME280;67376;44.802;10.332;2023-07-20T05:34:53;100443.06;;;31.22;44.84
78123;BME280;67376;44.802;10.332;2023-07-20T05:37:19;100441.78;;;31.19;45.25
78123;BME280;67376;44.802;10.332;2023-07-20T05:39:44;100438.69;;;31.21;45.18
78123;BME280;67376;44.802;10.332;2023-07-20T05:42:09;100443.38;;;31.20;45.34
78123;BME280;67376;44.802;10.332;2023-07-20T05:44:35;100446.13;;;31.20;45.02
78123;BME280;67376;44.802;10.332;2023-07-20T05:47:00;100443.38;;;31.20;45.54
78123;BME280;67376;44.802;10.332;2023-07-20T05:49:25;100453.59;;;31.20;45.24
78123;BME280;67376;44.802;10.332;2023-07-20T05:51:50;100448.91;;;31.20;45.10
78123;BME280;67376;44.802;10.332;2023-07-20T05:54:16;100448.09;;;31.20;45.21
78123;BME280;67376;44.802;10.332;2023-07-20T05:56:41;100445.69;;;31.18;45.61
78123;BME280;67376;44.802;10.332;2023-07-20T05:59:06;100450.84;;;31.20;44.82
78123;BME280;67376;44.802;10.332;2023-07-20T06:01:31;100455.59;;;31.19;45.04
78123;BME280;67376;44.802;10.332;2023-07-20T06:03:57;100452.00;;;31.19;45.44
78123;BME280;67376;44.802;10.332;2023-07-20T06:06:22;100464.63;;;31.20;44.69
78123;BME280;67376;44.802;10.332;2023-07-20T06:08:47;100472.91;;;31.20;45.13
78123;BME280;67376;44.802;10.332;2023-07-20T06:11:13;100470.16;;;31.20;44.97
78123;BME280;67376;44.802;10.332;2023-07-20T06:13:38;100469.84;;;31.22;44.97
78123;BME280;67376;44.802;10.332;2023-07-20T06:16:03;100461.88;;;31.20;44.47
78123;BME280;67376;44.802;10.332;2023-07-20T06:18:29;100473.72;;;31.20;45.08
78123;BME280;67376;44.802;10.332;2023-07-20T06:20:56;100475.66;;;31.20;45.47
78123;BME280;67376;44.802;10.332;2023-07-20T06:23:21;100479.25;;;31.20;44.83
78123;BME280;67376;44.802;10.332;2023-07-20T06:25:46;100481.19;;;31.20;45.26
78123;BME280;67376;44.802;10.332;2023-07-20T06:28:12;100480.41;;;31.19;45.37
78123;BME280;67376;44.802;10.332;2023-07-20T06:30:37;100485.09;;;31.19;45.21
78123;BME280;67376;44.802;10.332;2023-07-20T06:33:02;100483.16;;;31.19;45.43
78123;BME280;67376;44.802;10.332;2023-07-20T06:35:28;100482.34;;;31.19;45.21
78123;BME280;67376;44.802;10.332;2023-07-20T06:37:53;100483.16;;;31.19;45.21
78123;BME280;67376;44.802;10.332;2023-07-20T06:40:18;100485.09;;;31.19;45.26
78123;BME280;67376;44.802;10.332;2023-07-20T06:42:44;100483.47;;;31.18;45.21
78123;BME280;67376;44.802;10.332;2023-07-20T06:45:09;100487.38;;;31.17;45.40
78123;BME280;67376;44.802;10.332;2023-07-20T06:47:34;100488.19;;;31.17;44.94
78123;BME280;67376;44.802;10.332;2023-07-20T06:50:00;100492.06;;;31.16;45.24
78123;BME280;67376;44.802;10.332;2023-07-20T06:52:25;100492.06;;;31.16;45.04
78123;BME280;67376;44.802;10.332;2023-07-20T06:54:50;100497.59;;;31.16;45.27
78123;BME280;67376;44.802;10.332;2023-07-20T06:57:16;100497.59;;;31.16;45.34
78123;BME280;67376;44.802;10.332;2023-07-20T06:59:41;100493.19;;;31.15;44.80
78123;BME280;67376;44.802;10.332;2023-07-20T07:02:07;100498.41;;;31.17;45.31
78123;BME280;67376;44.802;10.332;2023-07-20T07:04:32;100491.25;;;31.16;45.41
78123;BME280;67376;44.802;10.332;2023-07-20T07:06:57;100488.50;;;31.16;44.80
78123;BME280;67376;44.802;10.332;2023-07-20T07:09:22;100497.09;;;31.14;45.17
78123;BME280;67376;44.802;10.332;2023-07-20T07:11:47;100495.97;;;31.15;45.25
78123;BME280;67376;44.802;10.332;2023-07-20T07:14:13;100494.31;;;31.14;45.23
78123;BME280;67376;44.802;10.332;2023-07-20T07:16:38;100498.72;;;31.15;45.27
78123;BME280;67376;44.802;10.332;2023-07-20T07:19:04;100497.09;;;31.14;44.87
78123;BME280;67376;44.802;10.332;2023-07-20T07:21:30;100499.03;;;31.14;45.58
78123;BME280;67376;44.802;10.332;2023-07-20T07:23:55;100499.84;;;31.14;44.79
78123;BME280;67376;44.802;10.332;2023-07-20T07:26:22;100500.66;;;31.15;45.29
78123;BME280;67376;44.802;10.332;2023-07-20T07:28:48;100496.28;;;31.14;45.39
78123;BME280;67376;44.802;10.332;2023-07-20T07:31:13;100494.31;;;31.14;45.42
78123;BME280;67376;44.802;10.332;2023-07-20T07:33:38;100493.50;;;31.14;45.60
78123;BME280;67376;44.802;10.332;2023-07-20T07:36:04;100502.59;;;31.14;45.24
78123;BME280;67376;44.802;10.332;2023-07-20T07:38:29;100499.03;;;31.14;45.12
78123;BME280;67376;44.802;10.332;2023-07-20T07:40:54;100493.50;;;31.14;45.36
78123;BME280;67376;44.802;10.332;2023-07-20T07:43:19;100492.69;;;31.13;44.85
78123;BME280;67376;44.802;10.332;2023-07-20T07:45:47;100489.94;;;31.13;45.36
78123;BME280;67376;44.802;10.332;2023-07-20T07:48:12;100491.03;;;31.12;45.46
78123;BME280;67376;44.802;10.332;2023-07-20T07:50:39;100492.69;;;31.13;44.90
78123;BME280;67376;44.802;10.332;2023-07-20T07:53:07;100490.22;;;31.12;44.96
78123;BME280;67376;44.802;10.332;2023-07-20T07:55:33;100492.16;;;31.11;45.23
78123;BME280;67376;44.802;10.332;2023-07-20T07:57:58;100491.88;;;31.13;45.59
78123;BME280;67376;44.802;10.332;2023-07-20T08:00:24;100484.69;;;31.12;45.32
78123;BME280;67376;44.802;10.332;2023-07-20T08:02:49;100494.94;;;31.11;45.44
78123;BME280;67376;44.802;10.332;2023-07-20T08:05:15;100503.19;;;31.11;45.08
78123;BME280;67376;44.802;10.332;2023-07-20T08:07:40;100502.38;;;31.11;44.88
78123;BME280;67376;44.802;10.332;2023-07-20T08:10:06;100502.06;;;31.12;45.40
78123;BME280;67376;44.802;10.332;2023-07-20T08:12:31;100505.13;;;31.11;45.44
78123;BME280;67376;44.802;10.332;2023-07-20T08:14:57;100504.31;;;31.10;44.52
78123;BME280;67376;44.802;10.332;2023-07-20T08:17:22;100503.50;;;31.10;44.92
78123;BME280;67376;44.802;10.332;2023-07-20T08:19:47;100505.97;;;31.11;45.42
78123;BME280;67376;44.802;10.332;2023-07-20T08:22:12;100510.34;;;31.12;44.76
78123;BME280;67376;44.802;10.332;2023-07-20T08:24:41;100513.41;;;31.11;44.77
78123;BME280;67376;44.802;10.332;2023-07-20T08:27:06;100513.41;;;31.11;45.42
78123;BME280;67376;44.802;10.332;2023-07-20T08:29:32;100509.03;;;31.10;45.73
78123;BME280;67376;44.802;10.332;2023-07-20T08:31:57;100509.84;;;31.10;45.09
78123;BME280;67376;44.802;10.332;2023-07-20T08:34:22;100501.56;;;31.10;45.04
78123;BME280;67376;44.802;10.332;2023-07-20T08:36:48;100498.00;;;31.10;45.46
78123;BME280;67376;44.802;10.332;2023-07-20T08:39:13;100501.88;;;31.09;45.28
78123;BME280;67376;44.802;10.332;2023-07-20T08:41:38;100502.69;;;31.09;44.86
78123;BME280;67376;44.802;10.332;2023-07-20T08:44:04;100494.44;;;31.09;44.85
78123;BME280;67376;44.802;10.332;2023-07-20T08:46:29;100494.44;;;31.09;44.86
78123;BME280;67376;44.802;10.332;2023-07-20T08:48:55;100491.66;;;31.09;44.80
78123;BME280;67376;44.802;10.332;2023-07-20T08:51:21;100489.22;;;31.08;44.57
78123;BME280;67376;44.802;10.332;2023-07-20T08:53:47;100491.97;;;31.08;44.87
78123;BME280;67376;44.802;10.332;2023-07-20T08:56:13;100479.81;;;31.09;45.45
78123;BME280;67376;44.802;10.332;2023-07-20T08:58:39;100486.47;;;31.08;45.28
78123;BME280;67376;44.802;10.332;2023-07-20T09:01:05;100477.38;;;31.07;45.33
78123;BME280;67376;44.802;10.332;2023-07-20T09:03:31;100482.88;;;31.07;44.91
78123;BME280;67376;44.802;10.332;2023-07-20T09:05:57;100478.50;;;31.06;45.22
78123;BME280;67376;44.802;10.332;2023-07-20T09:08:23;100487.28;;;31.08;45.04
78123;BME280;67376;44.802;10.332;2023-07-20T09:10:48;100484.03;;;31.06;44.78
78123;BME280;67376;44.802;10.332;2023-07-20T09:13:14;100478.19;;;31.08;45.58
78123;BME280;67376;44.802;10.332;2023-07-20T09:15:39;100488.41;;;31.07;44.83
78123;BME280;67376;44.802;10.332;2023-07-20T09:18:10;100480.94;;;31.08;44.98
78123;BME280;67376;44.802;10.332;2023-07-20T09:20:36;100483.69;;;31.08;45.19
78123;BME280;67376;44.802;10.332;2023-07-20T09:23:04;100482.06;;;31.07;44.97
78123;BME280;67376;44.802;10.332;2023-07-20T09:25:29;100480.13;;;31.07;44.75
78123;BME280;67376;44.802;10.332;2023-07-20T09:27:55;100486.47;;;31.08;44.95
78123;BME280;67376;44.802;10.332;2023-07-20T09:30:21;100487.59;;;31.07;45.55
78123;BME280;67376;44.802;10.332;2023-07-20T09:32:49;100483.69;;;31.08;45.44
78123;BME280;67376;44.802;10.332;2023-07-20T09:35:19;100484.84;;;31.07;44.59
78123;BME280;67376;44.802;10.332;2023-07-20T09:37:54;100485.66;;;31.07;44.91
78123;BME280;67376;44.802;10.332;2023-07-20T09:40:20;100480.13;;;31.07;44.81
78123;BME280;67376;44.802;10.332;2023-07-20T09:42:46;100480.13;;;31.07;44.74
78123;BME280;67376;44.802;10.332;2023-07-20T09:45:12;100478.50;;;31.06;45.07
78123;BME280;67376;44.802;10.332;2023-07-20T09:47:37;100474.13;;;31.05;45.42
78123;BME280;67376;44.802;10.332;2023-07-20T09:50:03;100467.47;;;31.06;45.55
78123;BME280;67376;44.802;10.332;2023-07-20T09:52:29;100466.66;;;31.06;45.09
78123;BME280;67376;44.802;10.332;2023-07-20T09:54:54;100459.19;;;31.06;44.96
78123;BME280;67376;44.802;10.332;2023-07-20T09:57:21;100460.31;;;31.05;45.03
78123;BME280;67376;44.802;10.332;2023-07-20T09:59:46;100455.63;;;31.06;44.96
78123;BME280;67376;44.802;10.332;2023-07-20T10:02:15;100459.19;;;31.06;45.46
78123;BME280;67376;44.802;10.332;2023-07-20T10:04:44;100457.56;;;31.05;45.49
78123;BME280;67376;44.802;10.332;2023-07-20T10:07:10;100452.88;;;31.06;44.71
78123;BME280;67376;44.802;10.332;2023-07-20T10:09:37;100453.69;;;31.06;44.93
78123;BME280;67376;44.802;10.332;2023-07-20T10:12:04;100458.38;;;31.06;44.96
78123;BME280;67376;44.802;10.332;2023-07-20T10:14:30;100454.81;;;31.05;45.58
78123;BME280;67376;44.802;10.332;2023-07-20T10:16:57;100454.81;;;31.05;44.76
78123;BME280;67376;44.802;10.332;2023-07-20T10:19:24;100441.84;;;31.06;45.13
78123;BME280;67376;44.802;10.332;2023-07-20T10:21:56;100448.16;;;31.06;45.09
78123;BME280;67376;44.802;10.332;2023-07-20T10:24:26;100443.78;;;31.05;44.84
78123;BME280;67376;44.802;10.332;2023-07-20T10:26:53;100454.81;;;31.05;45.19
78123;BME280;67376;44.802;10.332;2023-07-20T10:29:18;100446.53;;;31.05;45.39
78123;BME280;67376;44.802;10.332;2023-07-20T10:31:44;100447.03;;;31.07;44.94
78123;BME280;67376;44.802;10.332;2023-07-20T10:34:09;100439.06;;;31.06;45.24
78123;BME280;67376;44.802;10.332;2023-07-20T10:36:35;100443.78;;;31.05;45.33
78123;BME280;67376;44.802;10.332;2023-07-20T10:39:09;100450.94;;;31.06;45.47
78123;BME280;67376;44.802;10.332;2023-07-20T10:41:46;100453.69;;;31.06;45.36
78123;BME280;67376;44.802;10.332;2023-07-20T10:44:12;100450.94;;;31.06;45.40
78123;BME280;67376;44.802;10.332;2023-07-20T10:49:04;100447.34;;;31.06;44.91
78123;BME280;67376;44.802;10.332;2023-07-20T10:51:30;100441.84;;;31.06;44.92
78123;BME280;67376;44.802;10.332;2023-07-20T10:53:56;100435.50;;;31.05;45.25
78123;BME280;67376;44.802;10.332;2023-07-20T10:56:23;100434.69;;;31.05;45.27
78123;BME280;67376;44.802;10.332;2023-07-20T10:58:50;100433.56;;;31.06;45.52
78123;BME280;67376;44.802;10.332;2023-07-20T11:01:20;100424.47;;;31.05;45.43
78123;BME280;67376;44.802;10.332;2023-07-20T11:03:48;100435.50;;;31.05;45.68
78123;BME280;67376;44.802;10.332;2023-07-20T11:09:08;100428.03;;;31.06;45.38
78123;BME280;67376;44.802;10.332;2023-07-20T11:11:36;100425.28;;;31.06;44.98
78123;BME280;67376;44.802;10.332;2023-07-20T11:14:02;100418.66;;;31.07;44.58
78123;BME280;67376;44.802;10.332;2023-07-20T11:16:46;100419.78;;;31.06;45.47
78123;BME280;67376;44.802;10.332;2023-07-20T11:19:22;100407.94;;;31.05;44.63
78123;BME280;67376;44.802;10.332;2023-07-20T11:21:52;100406.28;;;31.04;44.98
78123;BME280;67376;44.802;10.332;2023-07-20T11:24:18;100401.59;;;31.05;45.13
78123;BME280;67376;44.802;10.332;2023-07-20T11:26:47;100402.41;;;31.05;44.88
78123;BME280;67376;44.802;10.332;2023-07-20T11:29:13;100400.47;;;31.06;45.76
78123;BME280;67376;44.802;10.332;2023-07-20T11:31:39;100394.13;;;31.05;45.12
78123;BME280;67376;44.802;10.332;2023-07-20T11:34:06;100395.75;;;31.06;44.75
78123;BME280;67376;44.802;10.332;2023-07-20T11:36:31;100389.44;;;31.06;44.96
78123;BME280;67376;44.802;10.332;2023-07-20T11:38:57;100393.81;;;31.07;44.96
78123;BME280;67376;44.802;10.332;2023-07-20T11:41:24;100391.38;;;31.05;44.89
78123;BME280;67376;44.802;10.332;2023-07-20T11:43:49;100385.03;;;31.05;44.85
78123;BME280;67376;44.802;10.332;2023-07-20T11:46:14;100392.19;;;31.06;45.65
78123;BME280;67376;44.802;10.332;2023-07-20T11:48:41;100385.03;;;31.05;44.85
78123;BME280;67376;44.802;10.332;2023-07-20T11:51:06;100383.09;;;31.05;45.09
78123;BME280;67376;44.802;10.332;2023-07-20T11:53:38;100386.69;;;31.06;45.53
78123;BME280;67376;44.802;10.332;2023-07-20T11:56:03;100380.34;;;31.05;45.36
78123;BME280;67376;44.802;10.332;2023-07-20T11:58:28;100377.59;;;31.05;45.49
78123;BME280;67376;44.802;10.332;2023-07-20T12:00:54;100366.56;;;31.05;44.84
78123;BME280;67376;44.802;10.332;2023-07-20T12:03:19;100360.22;;;31.05;44.89
78123;BME280;67376;44.802;10.332;2023-07-20T12:05:45;100365.75;;;31.05;45.48
78123;BME280;67376;44.802;10.332;2023-07-20T12:08:10;100361.84;;;31.06;45.55
78123;BME280;67376;44.802;10.332;2023-07-20T12:10:38;100358.28;;;31.05;44.82
78123;BME280;67376;44.802;10.332;2023-07-20T12:13:08;100356.34;;;31.06;45.01
78123;BME280;67376;44.802;10.332;2023-07-20T12:15:34;100358.28;;;31.05;45.27
78123;BME280;67376;44.802;10.332;2023-07-20T12:18:01;100350.00;;;31.05;45.34
78123;BME280;67376;44.802;10.332;2023-07-20T12:20:30;100350.00;;;31.05;45.15
78123;BME280;67376;44.802;10.332;2023-07-20T12:23:00;100345.31;;;31.06;45.42
78123;BME280;67376;44.802;10.332;2023-07-20T12:28:12;100342.56;;;31.06;44.94
78123;BME280;67376;44.802;10.332;2023-07-20T12:30:39;100337.03;;;31.06;44.58
78123;BME280;67376;44.802;10.332;2023-07-20T12:33:04;100331.53;;;31.06;45.30
78123;BME280;67376;44.802;10.332;2023-07-20T12:35:30;100331.53;;;31.06;45.37
78123;BME280;67376;44.802;10.332;2023-07-20T12:37:56;100328.75;;;31.06;45.60
78123;BME280;67376;44.802;10.332;2023-07-20T12:40:21;100326.00;;;31.06;45.27
78123;BME280;67376;44.802;10.332;2023-07-20T12:42:47;100332.34;;;31.06;44.79
78123;BME280;67376;44.802;10.332;2023-07-20T12:45:13;100322.44;;;31.05;44.94
78123;BME280;67376;44.802;10.332;2023-07-20T12:47:39;100319.69;;;31.05;45.36
78123;BME280;67376;44.802;10.332;2023-07-20T12:50:04;100327.63;;;31.07;45.77
78123;BME280;67376;44.802;10.332;2023-07-20T12:52:31;100326.00;;;31.06;44.77
78123;BME280;67376;44.802;10.332;2023-07-20T12:54:56;100321.31;;;31.06;45.35